createdAt,value
2022-08-10T00:01:52.813Z,21.74
2022-08-10T00:04:22.689Z,21.73
2022-08-10T00:06:52.925Z,21.71
2022-08-10T00:09:21.918Z,21.69
2022-08-10T00:11:50.568Z,21.68
2022-08-10T00:14:19.002Z,21.66
2022-08-10T00:16:47.818Z,21.65
2022-08-10T00:19:18.215Z,21.61
2022-08-10T00:21:47.422Z,21.59
2022-08-10T00:24:16.553Z,21.57
2022-08-10T00:28:01.504Z,21.55
2022-08-10T00:29:34.074Z,21.53
2022-08-10T00:32:03.072Z,21.52
2022-08-10T00:34:34.712Z,21.51
2022-08-10T00:37:03.124Z,21.50
2022-08-10T00:39:36.192Z,21.47
2022-08-10T00:42:08.590Z,21.46
2022-08-10T00:44:38.540Z,21.44
2022-08-10T00:47:21.323Z,21.43
2022-08-10T00:49:58.248Z,21.40
2022-08-10T00:52:28.397Z,21.39
2022-08-10T00:54:57.472Z,21.38
2022-08-10T00:57:26.546Z,21.35
2022-08-10T00:59:58.430Z,21.33
2022-08-10T01:02:30.558Z,21.31
2022-08-10T01:05:02.605Z,21.28
2022-08-10T01:07:46.706Z,21.26
2022-08-10T01:10:28.190Z,21.24
2022-08-10T01:13:05.660Z,21.22
2022-08-10T01:15:41.769Z,21.19
2022-08-10T01:18:14.741Z,21.16
2022-08-10T01:20:59.261Z,21.15
2022-08-10T01:23:54.898Z,21.13
2022-08-10T01:26:55.474Z,21.10
2022-08-10T01:29:55.024Z,21.08
2022-08-10T01:32:32.363Z,21.06
2022-08-10T01:35:11.228Z,21.04
2022-08-10T01:37:51.941Z,21.02
2022-08-10T01:40:25.730Z,20.99
2022-08-10T01:42:59.559Z,20.98
2022-08-10T01:45:45.513Z,20.95
2022-08-10T01:48:31.107Z,20.93
2022-08-10T01:51:06.062Z,20.90
2022-08-10T01:53:40.980Z,20.89
2022-08-10T01:56:13.625Z,20.86
2022-08-10T01:58:43.443Z,20.83
2022-08-10T02:01:17.680Z,20.82
2022-08-10T02:04:04.683Z,20.80
2022-08-10T02:06:38.388Z,20.77
2022-08-10T02:09:09.192Z,20.76
2022-08-10T02:11:55.632Z,20.73
2022-08-10T02:14:34.131Z,20.71
2022-08-10T02:17:08.709Z,20.67
2022-08-10T02:19:39.973Z,20.65
2022-08-10T02:22:45.756Z,20.63
2022-08-10T02:25:03.282Z,20.60
2022-08-10T02:27:34.081Z,20.57
2022-08-10T02:30:03.797Z,20.55
2022-08-10T02:32:37.791Z,20.53
2022-08-10T02:35:13.961Z,20.50
2022-08-10T02:37:54.039Z,20.47
2022-08-10T02:45:12.667Z,20.43
2022-08-10T02:45:18.929Z,20.41
2022-08-10T02:46:14.150Z,20.38
2022-08-10T02:48:52.738Z,20.35
2022-08-10T02:52:07.971Z,20.31
2022-08-10T02:54:16.814Z,20.26
2022-08-10T02:56:56.990Z,20.25
2022-08-10T02:59:39.951Z,20.21
2022-08-10T03:02:15.490Z,20.18
2022-08-10T03:04:55.344Z,20.14
2022-08-10T03:07:43.230Z,20.09
2022-08-10T03:10:18.355Z,20.04
2022-08-10T03:12:51.889Z,20.01
2022-08-10T03:15:22.497Z,19.97
2022-08-10T03:17:57.794Z,19.94
2022-08-10T03:20:37.374Z,19.91
2022-08-10T03:23:12.443Z,19.88
2022-08-10T03:25:53.197Z,19.83
2022-08-10T03:28:23.949Z,19.77
2022-08-10T03:30:53.969Z,19.73
2022-08-10T03:33:23.758Z,19.69
2022-08-10T03:36:41.485Z,19.63
2022-08-10T03:38:44.427Z,19.59
2022-08-10T03:41:16.189Z,19.56
2022-08-10T03:43:47.557Z,19.53
2022-08-10T03:46:19.392Z,19.50
2022-08-10T03:48:50.918Z,19.46
2022-08-10T03:51:21.398Z,19.43
2022-08-10T03:54:04.399Z,19.39
2022-08-10T03:56:37.559Z,19.37
2022-08-10T03:59:07.302Z,19.33
2022-08-10T04:02:43.821Z,19.30
2022-08-10T04:04:25.899Z,19.26
2022-08-10T04:06:57.928Z,19.24
2022-08-10T04:09:53.271Z,19.23
2022-08-10T04:12:20.048Z,19.19
2022-08-10T04:14:50.751Z,19.15
2022-08-10T04:17:59.310Z,19.13
2022-08-10T04:20:17.969Z,19.09
2022-08-10T04:22:50.915Z,19.07
2022-08-10T04:25:20.485Z,19.06
2022-08-10T04:27:49.897Z,19.05
2022-08-10T04:30:18.770Z,19.04
2022-08-10T04:32:51.036Z,19.03
2022-08-10T04:35:22.289Z,19.03
2022-08-10T04:37:53.283Z,19.02
2022-08-10T04:40:28.798Z,19.02
2022-08-10T04:43:11.274Z,19.00
2022-08-10T04:45:47.293Z,19.00
2022-08-10T04:48:43.228Z,19.02
2022-08-10T04:51:15.328Z,19.01
2022-08-10T04:54:06.124Z,19.01
2022-08-10T04:56:39.631Z,19.03
2022-08-10T04:59:11.187Z,19.03
2022-08-10T05:02:27.131Z,19.03
2022-08-10T05:04:34.346Z,19.04
2022-08-10T05:07:16.455Z,19.04
2022-08-10T05:10:02.606Z,19.06
2022-08-10T05:12:36.200Z,19.05
2022-08-10T05:15:07.687Z,19.05
2022-08-10T05:17:36.612Z,19.06
2022-08-10T05:20:07.595Z,19.06
2022-08-10T05:22:37.508Z,19.08
2022-08-10T05:25:12.887Z,19.08
2022-08-10T05:27:42.366Z,19.09
2022-08-10T05:30:14.362Z,19.11
2022-08-10T05:32:56.755Z,19.12
2022-08-10T05:35:56.350Z,19.14
2022-08-10T05:38:23.427Z,19.16
2022-08-10T05:40:53.717Z,19.18
2022-08-10T05:43:28.272Z,19.21
2022-08-10T05:46:18.958Z,19.24
2022-08-10T05:48:59.569Z,19.29
2022-08-10T05:51:33.352Z,19.32
2022-08-10T05:54:06.819Z,19.35
2022-08-10T05:56:53.809Z,19.40
2022-08-10T06:00:29.388Z,19.45
2022-08-10T06:02:41.306Z,19.50
2022-08-10T06:05:12.418Z,19.56
2022-08-10T06:07:43.613Z,19.61
2022-08-10T06:10:31.371Z,19.67
2022-08-10T06:13:30.087Z,19.73
2022-08-10T06:16:08.005Z,19.79
2022-08-10T06:18:37.351Z,19.84
2022-08-10T06:21:06.780Z,19.91
2022-08-10T06:23:35.704Z,19.96
2022-08-10T06:26:10.993Z,20.01
2022-08-10T06:28:56.049Z,20.09
2022-08-10T06:31:48.364Z,20.16
2022-08-10T06:34:22.174Z,20.22
2022-08-10T06:36:52.922Z,20.30
2022-08-10T06:39:34.175Z,20.38
2022-08-10T06:42:15.506Z,20.45
2022-08-10T06:44:58.527Z,20.52
2022-08-10T06:47:33.391Z,20.57
2022-08-10T06:50:09.403Z,20.65
2022-08-10T06:52:39.170Z,20.71
2022-08-10T06:55:11.972Z,20.78
2022-08-10T06:57:45.806Z,20.84
2022-08-10T07:00:33.844Z,20.93
2022-08-10T07:03:08.111Z,21.00
2022-08-10T07:05:40.489Z,21.07
2022-08-10T07:08:11.896Z,21.13
2022-08-10T07:10:46.134Z,21.19
2022-08-10T07:14:17.237Z,21.25
2022-08-10T07:16:12.207Z,21.31
2022-08-10T07:18:43.383Z,21.36
2022-08-10T07:21:14.383Z,21.43
2022-08-10T07:23:59.272Z,21.48
2022-08-10T07:26:31.298Z,21.55
2022-08-10T07:29:01.450Z,21.61
2022-08-10T07:31:57.371Z,21.70
2022-08-10T07:34:29.805Z,21.78
2022-08-10T07:37:03.092Z,21.85
2022-08-10T07:39:59.603Z,21.91
2022-08-10T07:42:31.333Z,21.98
2022-08-10T07:45:00.335Z,22.06
2022-08-10T07:47:53.957Z,22.12
2022-08-10T07:50:26.442Z,22.18
2022-08-10T07:52:58.081Z,22.25
2022-08-10T07:56:05.054Z,22.33
2022-08-10T07:58:18.534Z,22.40
2022-08-10T08:00:53.189Z,22.48
2022-08-10T08:03:27.370Z,22.55
2022-08-10T08:06:03.123Z,22.63
2022-08-10T08:08:38.978Z,22.70
2022-08-10T08:11:08.844Z,22.76
2022-08-10T08:13:39.674Z,22.82
2022-08-10T08:16:18.097Z,22.89
2022-08-10T08:24:10.687Z,23.05
2022-08-10T08:24:38.928Z,23.15
2022-08-10T08:27:08.638Z,23.22
2022-08-10T08:29:43.182Z,23.30
2022-08-10T08:32:12.737Z,23.38
2022-08-10T08:34:47.334Z,23.46
2022-08-10T08:37:18.850Z,23.54
2022-08-10T08:40:11.564Z,23.63
2022-08-10T08:42:55.980Z,23.73
2022-08-10T08:45:34.416Z,23.80
2022-08-10T08:48:17.344Z,23.87
2022-08-10T08:51:08.631Z,23.95
2022-08-10T08:54:02.679Z,24.04
2022-08-10T08:56:36.613Z,24.12
2022-08-10T08:59:19.087Z,24.20
2022-08-10T09:02:08.136Z,24.28
2022-08-10T09:04:57.279Z,24.37
2022-08-10T09:08:00.126Z,24.47
2022-08-10T09:10:39.531Z,24.57
2022-08-10T09:13:15.036Z,24.67
2022-08-10T09:15:52.605Z,24.73
2022-08-10T09:18:24.942Z,24.80
2022-08-10T09:21:00.129Z,24.88
2022-08-10T09:24:05.177Z,24.94
2022-08-10T09:26:48.244Z,25.05
2022-08-10T09:29:25.960Z,25.13
2022-08-10T09:36:17.198Z,25.25
2022-08-10T09:36:27.004Z,25.32
2022-08-10T09:38:03.508Z,25.40
2022-08-10T09:40:59.482Z,25.47
2022-08-10T09:43:41.822Z,25.59
2022-08-10T09:46:21.392Z,25.67
2022-08-10T09:49:06.857Z,25.73
2022-08-10T09:51:47.900Z,25.80
2022-08-10T09:54:34.104Z,25.89
2022-08-10T09:57:44.422Z,25.96
2022-08-10T10:00:10.933Z,26.03
2022-08-10T10:03:04.530Z,26.10
2022-08-10T10:05:50.394Z,26.15
2022-08-10T10:08:42.793Z,26.22
2022-08-10T10:11:19.033Z,26.27
2022-08-10T10:14:04.577Z,26.31
2022-08-10T10:16:44.630Z,26.36
2022-08-10T10:19:25.621Z,26.44
2022-08-10T10:22:08.900Z,26.52
2022-08-10T10:24:46.648Z,26.57
2022-08-10T10:27:23.892Z,26.66
2022-08-10T10:30:03.252Z,26.74
2022-08-10T10:32:45.890Z,26.84
2022-08-10T10:35:24.522Z,26.95
2022-08-10T10:38:01.297Z,27.03
2022-08-10T10:40:40.423Z,27.10
2022-08-10T10:43:27.170Z,27.17
2022-08-10T10:46:07.304Z,27.25
2022-08-10T10:48:42.568Z,27.36
2022-08-10T10:51:17.856Z,27.42
2022-08-10T10:53:54.286Z,27.49
2022-08-10T10:56:31.844Z,27.56
2022-08-10T10:59:53.924Z,27.63
2022-08-10T11:02:22.436Z,27.68
2022-08-10T11:05:03.745Z,27.75
2022-08-10T11:07:38.504Z,27.83
2022-08-10T11:10:32.764Z,27.94
2022-08-10T11:14:27.631Z,28.06
2022-08-10T11:16:17.947Z,28.15
2022-08-10T11:19:04.526Z,28.22
2022-08-10T11:21:44.194Z,28.32
2022-08-10T11:24:47.112Z,28.43
2022-08-10T11:27:22.217Z,28.55
2022-08-10T11:30:01.694Z,28.67
2022-08-10T11:32:38.099Z,28.78
2022-08-10T11:35:21.453Z,28.89
2022-08-10T11:38:30.926Z,29.00
2022-08-10T11:41:00.090Z,29.10
2022-08-10T11:43:57.959Z,29.15
2022-08-10T11:46:35.568Z,29.15
2022-08-10T11:49:09.476Z,29.20
2022-08-10T11:51:51.207Z,29.28
2022-08-10T11:54:30.349Z,29.34
2022-08-10T11:57:02.883Z,29.41
2022-08-10T11:59:57.911Z,29.49
2022-08-10T12:02:33.816Z,29.61
2022-08-10T12:05:09.005Z,29.71
2022-08-10T12:10:03.548Z,29.82
2022-08-10T12:10:34.450Z,29.94
2022-08-10T12:13:12.492Z,30.04
2022-08-10T12:15:59.153Z,30.15
2022-08-10T12:18:35.004Z,30.25
2022-08-10T12:21:23.365Z,30.37
2022-08-10T12:24:02.489Z,30.46
2022-08-10T12:26:38.817Z,30.57
2022-08-10T12:29:15.400Z,30.65
2022-08-10T12:31:49.586Z,30.72
2022-08-10T12:34:24.386Z,30.80
2022-08-10T12:37:01.723Z,30.85
2022-08-10T12:39:44.538Z,30.85
2022-08-10T12:42:37.066Z,30.89
2022-08-10T12:45:21.978Z,30.89
2022-08-10T12:47:59.797Z,30.95
2022-08-10T12:50:39.549Z,31.04
2022-08-10T12:53:18.849Z,31.11
2022-08-10T12:55:50.820Z,31.20
2022-08-10T12:58:57.564Z,31.25
2022-08-10T13:01:16.920Z,31.34
2022-08-10T13:04:21.541Z,31.43
2022-08-10T13:06:41.578Z,31.53
2022-08-10T13:09:10.381Z,31.64
2022-08-10T13:12:34.808Z,31.70
2022-08-10T13:14:39.481Z,31.77
2022-08-10T13:17:09.196Z,31.86
2022-08-10T13:19:56.321Z,31.96
2022-08-10T13:22:31.480Z,32.09
2022-08-10T13:25:04.078Z,32.17
2022-08-10T13:28:00.615Z,32.27
2022-08-10T13:30:38.430Z,32.42
2022-08-10T13:33:08.495Z,32.54
2022-08-10T13:35:38.498Z,32.66
2022-08-10T13:38:09.342Z,32.72
2022-08-10T13:40:39.800Z,32.70
2022-08-10T13:43:11.304Z,32.74
2022-08-10T13:45:46.267Z,32.81
2022-08-10T13:48:20.885Z,32.92
2022-08-10T13:50:53.269Z,33.04
2022-08-10T13:53:23.368Z,33.17
2022-08-10T13:55:56.554Z,33.26
2022-08-10T13:58:29.852Z,33.34
2022-08-10T14:00:59.965Z,33.44
2022-08-10T14:03:29.905Z,33.58
2022-08-10T14:05:59.577Z,33.65
2022-08-10T14:08:32.282Z,33.73
2022-08-10T14:11:12.711Z,33.90
2022-08-10T14:13:52.539Z,34.01
2022-08-10T14:16:23.730Z,34.08
2022-08-10T14:18:55.414Z,34.19
2022-08-10T14:21:24.001Z,34.28
2022-08-10T14:23:53.851Z,34.36
2022-08-10T14:26:26.388Z,34.40
2022-08-10T14:29:03.237Z,34.50
2022-08-10T14:31:34.450Z,34.57
2022-08-10T14:34:09.284Z,34.69
2022-08-10T14:36:43.251Z,34.82
2022-08-10T14:39:20.487Z,34.91
2022-08-10T14:42:01.355Z,34.99
2022-08-10T14:44:47.265Z,35.07
2022-08-10T14:47:51.714Z,35.12
2022-08-10T14:50:08.744Z,35.24
2022-08-10T14:52:44.062Z,35.38
2022-08-10T14:55:19.379Z,35.47
2022-08-10T14:58:19.534Z,35.54
2022-08-10T15:00:43.109Z,35.63
2022-08-10T15:04:02.119Z,35.72
2022-08-10T15:06:17.042Z,35.84
2022-08-10T15:08:47.798Z,35.93
2022-08-10T15:12:15.020Z,36.00
2022-08-10T15:14:33.254Z,36.00
2022-08-10T15:17:00.453Z,36.03
2022-08-10T15:20:02.230Z,35.98
2022-08-10T15:22:37.184Z,36.01
2022-08-10T15:25:18.045Z,35.95
2022-08-10T15:27:54.334Z,35.89
2022-08-10T15:30:31.556Z,35.96
2022-08-10T15:34:02.606Z,35.96
2022-08-10T15:36:35.589Z,35.97
2022-08-10T15:39:16.401Z,36.07
2022-08-10T15:42:03.740Z,36.10
2022-08-10T15:44:38.189Z,36.12
2022-08-10T15:47:10.492Z,35.98
2022-08-10T15:49:48.800Z,35.98
2022-08-10T15:52:39.062Z,36.06
2022-08-10T15:55:42.551Z,36.03
2022-08-10T15:58:07.880Z,36.02
2022-08-10T16:00:45.292Z,36.06
2022-08-10T16:03:23.751Z,36.13
2022-08-10T16:06:01.988Z,36.17
2022-08-10T16:08:55.837Z,36.17
2022-08-10T16:11:38.194Z,36.13
2022-08-10T16:14:12.948Z,36.07
2022-08-10T16:16:43.069Z,36.07
2022-08-10T16:19:23.790Z,36.12
2022-08-10T16:22:34.439Z,36.18
2022-08-10T16:24:58.286Z,36.23
2022-08-10T16:27:29.044Z,36.25
2022-08-10T16:30:00.601Z,36.20
2022-08-10T16:32:31.948Z,36.14
2022-08-10T16:35:08.947Z,36.14
2022-08-10T16:37:58.794Z,36.17
2022-08-10T16:40:30.266Z,36.08
2022-08-10T16:43:01.044Z,36.04
2022-08-10T16:45:36.415Z,36.01
2022-08-10T16:48:07.006Z,35.92
2022-08-10T16:50:41.530Z,35.85
2022-08-10T16:53:15.432Z,35.81
2022-08-10T16:55:50.603Z,35.78
2022-08-10T16:58:22.475Z,35.68
2022-08-10T17:00:51.856Z,35.59
2022-08-10T17:04:08.196Z,35.50
2022-08-10T17:06:23.546Z,35.38
2022-08-10T17:08:56.742Z,35.25
2022-08-10T17:11:31.018Z,35.16
2022-08-10T17:14:00.994Z,35.04
2022-08-10T17:16:35.732Z,34.94
2022-08-10T17:19:08.622Z,34.83
2022-08-10T17:21:51.941Z,34.65
2022-08-10T17:24:27.590Z,34.47
2022-08-10T17:26:59.388Z,34.25
2022-08-10T17:29:58.279Z,34.00
2022-08-10T17:32:33.094Z,33.76
2022-08-10T17:35:16.130Z,33.51
2022-08-10T17:37:48.565Z,33.20
2022-08-10T17:40:22.349Z,32.96
2022-08-10T17:42:51.950Z,32.72
2022-08-10T17:45:47.841Z,32.51
2022-08-10T17:48:12.239Z,32.28
2022-08-10T17:50:42.781Z,32.10
2022-08-10T17:53:17.115Z,31.92
2022-08-10T17:55:49.483Z,31.74
2022-08-10T17:58:20.911Z,31.57
2022-08-10T18:00:52.158Z,31.40
2022-08-10T18:03:25.253Z,31.27
2022-08-10T18:05:56.276Z,31.12
2022-08-10T18:08:28.833Z,31.02
2022-08-10T18:10:59.985Z,30.89
2022-08-10T18:13:55.879Z,30.73
2022-08-10T18:16:25.828Z,30.58
2022-08-10T18:19:00.092Z,30.46
2022-08-10T18:21:31.911Z,30.33
2022-08-10T18:24:04.497Z,30.21
2022-08-10T18:26:38.412Z,30.11
2022-08-10T18:29:10.065Z,30.02
2022-08-10T18:31:39.751Z,29.92
2022-08-10T18:34:12.947Z,29.81
2022-08-10T18:36:43.267Z,29.72
2022-08-10T18:39:13.701Z,29.63
2022-08-10T18:42:00.789Z,29.57
2022-08-10T18:44:37.253Z,29.46
2022-08-10T18:47:10.710Z,29.36
2022-08-10T18:49:51.348Z,29.28
2022-08-10T18:52:24.035Z,29.16
2022-08-10T18:54:56.839Z,29.08
2022-08-10T18:57:41.859Z,28.99
2022-08-10T19:00:12.985Z,28.88
2022-08-10T19:03:01.701Z,28.76
2022-08-10T19:05:48.536Z,28.66
2022-08-10T19:08:49.091Z,28.52
2022-08-10T19:11:28.394Z,28.42
2022-08-10T19:14:03.901Z,28.31
2022-08-10T19:16:42.081Z,28.21
2022-08-10T19:19:30.101Z,28.10
2022-08-10T19:22:05.665Z,28.01
2022-08-10T19:24:47.027Z,27.92
2022-08-10T19:27:30.095Z,27.81
2022-08-10T19:30:11.636Z,27.69
2022-08-10T19:33:07.161Z,27.58
2022-08-10T19:36:03.051Z,27.46
2022-08-10T19:38:50.301Z,27.38
2022-08-10T19:41:32.481Z,27.30
2022-08-10T19:44:16.595Z,27.20
2022-08-10T19:46:55.884Z,27.12
2022-08-10T19:49:39.933Z,27.04
2022-08-10T19:52:15.171Z,26.97
2022-08-10T19:54:56.618Z,26.91
2022-08-10T19:57:34.484Z,26.83
2022-08-10T20:00:19.309Z,26.76
2022-08-10T20:03:12.196Z,26.70
2022-08-10T20:06:12.961Z,26.65
2022-08-10T20:08:45.193Z,26.58
2022-08-10T20:11:46.155Z,26.52
2022-08-10T20:14:22.314Z,26.42
2022-08-10T20:16:55.965Z,26.40
2022-08-10T20:19:53.977Z,26.38
2022-08-10T20:22:29.388Z,26.35
2022-08-10T20:25:05.269Z,26.30
2022-08-10T20:27:58.947Z,26.24
2022-08-10T20:30:30.026Z,26.18
2022-08-10T20:33:05.279Z,26.13
2022-08-10T20:35:48.386Z,26.08
2022-08-10T20:38:27.150Z,26.02
2022-08-10T20:41:07.200Z,25.96
2022-08-10T20:43:42.670Z,25.92
2022-08-10T20:46:25.494Z,25.86
2022-08-10T20:49:00.500Z,25.81
2022-08-10T20:51:58.723Z,25.76
2022-08-10T20:54:32.899Z,25.71
2022-08-10T20:57:55.135Z,25.68
2022-08-10T21:00:13.783Z,25.61
2022-08-10T21:03:20.738Z,25.58
2022-08-10T21:05:59.910Z,25.53
2022-08-10T21:08:42.998Z,25.50
2022-08-10T21:11:19.696Z,25.47
2022-08-10T21:14:01.963Z,25.44
2022-08-10T21:16:41.619Z,25.42
2022-08-10T21:19:35.991Z,25.39
2022-08-10T21:22:15.595Z,25.36
2022-08-10T21:24:52.202Z,25.32
2022-08-10T21:27:41.271Z,25.29
2022-08-10T21:30:11.055Z,25.25
2022-08-10T21:32:48.839Z,25.22
2022-08-10T21:35:37.461Z,25.19
2022-08-10T21:38:16.737Z,25.14
2022-08-10T21:41:17.862Z,25.10
2022-08-10T21:44:16.612Z,25.06
2022-08-10T21:47:10.118Z,25.01
2022-08-10T21:50:07.500Z,24.98
2022-08-10T21:53:04.256Z,24.94
2022-08-10T21:56:02.463Z,24.89
2022-08-10T21:58:54.271Z,24.85
2022-08-10T22:01:51.431Z,24.79
2022-08-10T22:04:40.184Z,24.75
2022-08-10T22:07:36.250Z,24.71
2022-08-10T22:10:25.885Z,24.67
2022-08-10T22:13:19.922Z,24.62
2022-08-10T22:16:12.199Z,24.58
2022-08-10T22:19:14.554Z,24.54
2022-08-10T22:22:26.903Z,24.50
2022-08-10T22:25:31.930Z,24.46
2022-08-10T22:28:19.564Z,24.42
2022-08-10T22:31:30.879Z,24.39
2022-08-10T22:34:33.417Z,24.35
2022-08-10T22:37:33.999Z,24.29
2022-08-10T22:40:25.676Z,24.24
2022-08-10T22:43:14.425Z,24.20
2022-08-10T22:46:24.953Z,24.15
2022-08-10T22:49:01.764Z,24.10
2022-08-10T22:51:38.234Z,24.07
2022-08-10T22:54:31.922Z,24.01
2022-08-10T22:57:19.840Z,23.98
2022-08-10T22:59:50.191Z,23.97
2022-08-10T23:02:31.623Z,23.94
2022-08-10T23:05:11.622Z,23.94
2022-08-10T23:07:48.295Z,23.89
2022-08-10T23:10:22.566Z,23.87
2022-08-10T23:12:52.519Z,23.83
2022-08-10T23:15:44.132Z,23.80
2022-08-10T23:18:37.557Z,23.77
2022-08-10T23:21:12.259Z,23.73
2022-08-10T23:23:43.580Z,23.69
2022-08-10T23:26:16.162Z,23.66
2022-08-10T23:28:59.217Z,23.61
2022-08-10T23:32:00.890Z,23.55
2022-08-10T23:34:27.645Z,23.48
2022-08-10T23:36:58.436Z,23.42
2022-08-10T23:39:35.565Z,23.36
2022-08-10T23:42:08.451Z,23.32
2022-08-10T23:44:45.711Z,23.27
2022-08-10T23:47:16.895Z,23.23
2022-08-10T23:49:50.949Z,23.19
2022-08-10T23:52:23.402Z,23.15
2022-08-10T23:54:57.074Z,23.09
2022-08-10T23:57:28.766Z,23.04
